KJAX/JAX METAR and TAF weather

Enter ICAO airport designator
Station Type Date Time Source
KJAX METAR 2022/10/01 07:56 UTC NOAA

KJAX 010756Z 00000KT 10SM BKN060 17/16 A2982 RMK AO2 SLP099 T01720161


Station Type Date Time Source
KJAX Decoded METAR 2022/10/01 07:56 UTC NOAA

JACKSONVILLE INTERNATIONAL, FL, United States (KJAX) 30-30N 81-42W 7M
Oct 01, 2022 - 03:56 AM EDT / 2022.10.01 0756 UTC
Wind: Calm:0
Visibility: 10 mile(s):0
Sky conditions: mostly cloudy
Temperature: 63.0 F (17.2 C)
Dew Point: 61.0 F (16.1 C)
Relative Humidity: 93%
Pressure (altimeter): 29.82 in. Hg (1009 hPa)
ob: KJAX 010756Z 00000KT 10SM BKN060 17/16 A2982 RMK AO2 SLP099 T01720161
cycle: 8

Station Type Date Time Source
KJAX TAF 2022/10/01 06:22 UTC NOAA

TAF KJAX 010520Z 0106/0206 29003KT P6SM BKN060
FM011300 26005KT P6SM FEW060
FM011800 25007KT P6SM SKC
FM012300 22002KT P6SM SKC

Example: see airport list